sensor_id;sensor_type;location;lat;lon;timestamp;P1;durP1;ratioP1;P2;durP2;ratioP2
6017;SDS011;3037;51.068;13.780;2023-04-24T00:00:31;5.73;;;3.90;;
6017;SDS011;3037;51.068;13.780;2023-04-24T00:02:57;4.43;;;4.00;;
6017;SDS011;3037;51.068;13.780;2023-04-24T00:05:23;4.77;;;4.37;;
6017;SDS011;3037;51.068;13.780;2023-04-24T00:07:49;4.10;;;3.80;;
6017;SDS011;3037;51.068;13.780;2023-04-24T00:10:17;8.03;;;4.00;;
6017;SDS011;3037;51.068;13.780;2023-04-24T00:12:43;4.30;;;3.90;;
6017;SDS011;3037;51.068;13.780;2023-04-24T00:15:09;5.00;;;4.33;;
6017;SDS011;3037;51.068;13.780;2023-04-24T00:17:35;3.90;;;3.47;;
6017;SDS011;3037;51.068;13.780;2023-04-24T00:20:00;3.97;;;3.70;;
6017;SDS011;3037;51.068;13.780;2023-04-24T00:22:29;4.53;;;4.23;;
6017;SDS011;3037;51.068;13.780;2023-04-24T00:24:55;4.77;;;3.90;;
6017;SDS011;3037;51.068;13.780;2023-04-24T00:27:20;8.70;;;4.03;;
6017;SDS011;3037;51.068;13.780;2023-04-24T00:29:46;4.10;;;3.90;;
6017;SDS011;3037;51.068;13.780;2023-04-24T00:32:12;4.00;;;3.70;;
6017;SDS011;3037;51.068;13.780;2023-04-24T00:34:38;5.83;;;4.07;;
6017;SDS011;3037;51.068;13.780;2023-04-24T00:37:03;4.60;;;3.97;;
6017;SDS011;3037;51.068;13.780;2023-04-24T00:39:29;4.27;;;3.90;;
6017;SDS011;3037;51.068;13.780;2023-04-24T00:41:54;5.80;;;4.00;;
6017;SDS011;3037;51.068;13.780;2023-04-24T00:44:21;5.83;;;4.47;;
6017;SDS011;3037;51.068;13.780;2023-04-24T00:46:47;4.50;;;4.10;;
6017;SDS011;3037;51.068;13.780;2023-04-24T00:49:16;6.00;;;4.20;;
6017;SDS011;3037;51.068;13.780;2023-04-24T00:51:43;4.73;;;4.43;;
6017;SDS011;3037;51.068;13.780;2023-04-24T00:54:10;9.83;;;5.07;;
6017;SDS011;3037;51.068;13.780;2023-04-24T00:56:36;4.70;;;3.80;;
6017;SDS011;3037;51.068;13.780;2023-04-24T00:59:02;5.13;;;4.63;;
6017;SDS011;3037;51.068;13.780;2023-04-24T01:01:28;4.83;;;4.43;;
6017;SDS011;3037;51.068;13.780;2023-04-24T01:03:53;5.20;;;4.37;;
6017;SDS011;3037;51.068;13.780;2023-04-24T01:06:20;4.50;;;4.20;;
6017;SDS011;3037;51.068;13.780;2023-04-24T01:08:46;6.10;;;4.90;;
6017;SDS011;3037;51.068;13.780;2023-04-24T01:11:12;7.73;;;4.10;;
6017;SDS011;3037;51.068;13.780;2023-04-24T01:13:39;6.77;;;4.20;;
6017;SDS011;3037;51.068;13.780;2023-04-24T01:16:05;4.33;;;3.93;;
6017;SDS011;3037;51.068;13.780;2023-04-24T01:18:30;5.87;;;4.20;;
6017;SDS011;3037;51.068;13.780;2023-04-24T01:20:57;5.20;;;4.80;;
6017;SDS011;3037;51.068;13.780;2023-04-24T01:23:24;5.27;;;4.50;;
6017;SDS011;3037;51.068;13.780;2023-04-24T01:25:50;5.23;;;4.43;;
6017;SDS011;3037;51.068;13.780;2023-04-24T01:28:16;5.33;;;4.87;;
6017;SDS011;3037;51.068;13.780;2023-04-24T01:30:42;8.63;;;4.27;;
6017;SDS011;3037;51.068;13.780;2023-04-24T01:33:08;5.20;;;4.27;;
6017;SDS011;3037;51.068;13.780;2023-04-24T01:35:33;4.40;;;4.00;;
6017;SDS011;3037;51.068;13.780;2023-04-24T01:38:00;6.70;;;4.63;;
6017;SDS011;3037;51.068;13.780;2023-04-24T01:40:26;14.17;;;4.60;;
6017;SDS011;3037;51.068;13.780;2023-04-24T01:42:52;4.70;;;4.23;;
6017;SDS011;3037;51.068;13.780;2023-04-24T01:45:17;4.70;;;4.40;;
6017;SDS011;3037;51.068;13.780;2023-04-24T01:47:43;4.23;;;3.80;;
6017;SDS011;3037;51.068;13.780;2023-04-24T01:50:09;9.83;;;4.87;;
6017;SDS011;3037;51.068;13.780;2023-04-24T01:52:35;5.53;;;4.50;;
6017;SDS011;3037;51.068;13.780;2023-04-24T01:55:01;5.00;;;4.60;;
6017;SDS011;3037;51.068;13.780;2023-04-24T01:57:30;4.27;;;4.03;;
6017;SDS011;3037;51.068;13.780;2023-04-24T01:59:56;5.50;;;4.97;;
6017;SDS011;3037;51.068;13.780;2023-04-24T02:02:22;6.23;;;5.10;;
6017;SDS011;3037;51.068;13.780;2023-04-24T02:04:53;6.10;;;5.50;;
6017;SDS011;3037;51.068;13.780;2023-04-24T02:07:19;5.50;;;4.63;;
6017;SDS011;3037;51.068;13.780;2023-04-24T02:09:44;5.40;;;5.00;;
6017;SDS011;3037;51.068;13.780;2023-04-24T02:12:10;5.80;;;4.50;;
6017;SDS011;3037;51.068;13.780;2023-04-24T02:14:35;4.77;;;4.20;;
6017;SDS011;3037;51.068;13.780;2023-04-24T02:17:01;3.87;;;3.67;;
6017;SDS011;3037;51.068;13.780;2023-04-24T02:19:26;5.77;;;4.90;;
6017;SDS011;3037;51.068;13.780;2023-04-24T02:21:52;5.00;;;4.50;;
6017;SDS011;3037;51.068;13.780;2023-04-24T02:24:17;6.07;;;4.77;;
6017;SDS011;3037;51.068;13.780;2023-04-24T02:26:43;8.73;;;5.70;;
6017;SDS011;3037;51.068;13.780;2023-04-24T02:29:08;4.70;;;4.30;;
6017;SDS011;3037;51.068;13.780;2023-04-24T02:31:34;5.50;;;5.00;;
6017;SDS011;3037;51.068;13.780;2023-04-24T02:33:59;4.80;;;4.40;;
6017;SDS011;3037;51.068;13.780;2023-04-24T02:36:25;5.80;;;4.77;;
6017;SDS011;3037;51.068;13.780;2023-04-24T02:38:50;4.43;;;4.03;;
6017;SDS011;3037;51.068;13.780;2023-04-24T02:41:16;6.10;;;5.53;;
6017;SDS011;3037;51.068;13.780;2023-04-24T02:43:41;5.47;;;4.60;;
6017;SDS011;3037;51.068;13.780;2023-04-24T02:46:07;4.80;;;4.40;;
6017;SDS011;3037;51.068;13.780;2023-04-24T02:48:32;5.80;;;4.90;;
6017;SDS011;3037;51.068;13.780;2023-04-24T02:50:58;6.87;;;4.30;;
6017;SDS011;3037;51.068;13.780;2023-04-24T02:53:24;4.67;;;4.27;;
6017;SDS011;3037;51.068;13.780;2023-04-24T02:55:50;6.70;;;5.20;;
6017;SDS011;3037;51.068;13.780;2023-04-24T02:58:15;6.83;;;4.13;;
6017;SDS011;3037;51.068;13.780;2023-04-24T03:00:42;5.40;;;4.53;;
6017;SDS011;3037;51.068;13.780;2023-04-24T03:03:08;7.83;;;4.60;;
6017;SDS011;3037;51.068;13.780;2023-04-24T03:05:34;5.53;;;5.03;;
6017;SDS011;3037;51.068;13.780;2023-04-24T03:07:59;6.27;;;4.77;;
6017;SDS011;3037;51.068;13.780;2023-04-24T03:10:25;7.67;;;5.00;;
6017;SDS011;3037;51.068;13.780;2023-04-24T03:12:50;6.57;;;5.90;;
6017;SDS011;3037;51.068;13.780;2023-04-24T03:15:16;5.63;;;5.07;;
6017;SDS011;3037;51.068;13.780;2023-04-24T03:17:41;5.37;;;4.83;;
6017;SDS011;3037;51.068;13.780;2023-04-24T03:20:07;6.97;;;4.60;;
6017;SDS011;3037;51.068;13.780;2023-04-24T03:22:33;7.67;;;5.00;;
6017;SDS011;3037;51.068;13.780;2023-04-24T03:24:59;4.73;;;4.33;;
6017;SDS011;3037;51.068;13.780;2023-04-24T03:27:25;5.17;;;4.67;;
6017;SDS011;3037;51.068;13.780;2023-04-24T03:29:51;8.67;;;4.73;;
6017;SDS011;3037;51.068;13.780;2023-04-24T03:32:19;5.20;;;4.80;;
6017;SDS011;3037;51.068;13.780;2023-04-24T03:34:45;5.50;;;5.00;;
6017;SDS011;3037;51.068;13.780;2023-04-24T03:37:11;5.90;;;5.30;;
6017;SDS011;3037;51.068;13.780;2023-04-24T03:39:37;7.20;;;5.77;;
6017;SDS011;3037;51.068;13.780;2023-04-24T03:42:02;6.43;;;5.53;;
6017;SDS011;3037;51.068;13.780;2023-04-24T03:44:28;5.43;;;4.93;;
6017;SDS011;3037;51.068;13.780;2023-04-24T03:46:53;10.30;;;5.50;;
6017;SDS011;3037;51.068;13.780;2023-04-24T03:49:19;6.70;;;5.80;;
6017;SDS011;3037;51.068;13.780;2023-04-24T03:51:45;5.30;;;4.80;;
6017;SDS011;3037;51.068;13.780;2023-04-24T03:54:10;7.87;;;5.60;;
6017;SDS011;3037;51.068;13.780;2023-04-24T03:56:36;6.40;;;5.60;;
6017;SDS011;3037;51.068;13.780;2023-04-24T03:59:01;6.00;;;5.40;;
6017;SDS011;3037;51.068;13.780;2023-04-24T04:01:27;8.37;;;4.80;;
6017;SDS011;3037;51.068;13.780;2023-04-24T04:03:53;5.90;;;5.40;;
6017;SDS011;3037;51.068;13.780;2023-04-24T04:06:18;5.43;;;4.83;;
6017;SDS011;3037;51.068;13.780;2023-04-24T04:08:44;8.30;;;4.80;;
6017;SDS011;3037;51.068;13.780;2023-04-24T04:11:10;4.73;;;4.33;;
6017;SDS011;3037;51.068;13.780;2023-04-24T04:13:35;5.10;;;4.60;;
6017;SDS011;3037;51.068;13.780;2023-04-24T04:16:00;3.77;;;2.20;;
6017;SDS011;3037;51.068;13.780;2023-04-24T04:18:26;6.40;;;4.67;;
6017;SDS011;3037;51.068;13.780;2023-04-24T04:20:52;4.77;;;3.73;;
6017;SDS011;3037;51.068;13.780;2023-04-24T04:23:17;3.67;;;3.47;;
6017;SDS011;3037;51.068;13.780;2023-04-24T04:25:43;8.73;;;3.13;;
6017;SDS011;3037;51.068;13.780;2023-04-24T04:28:08;12.93;;;3.00;;
6017;SDS011;3037;51.068;13.780;2023-04-24T04:30:34;4.20;;;3.60;;
6017;SDS011;3037;51.068;13.780;2023-04-24T04:32:59;3.50;;;3.20;;
6017;SDS011;3037;51.068;13.780;2023-04-24T04:35:25;4.00;;;3.70;;
6017;SDS011;3037;51.068;13.780;2023-04-24T04:37:51;6.57;;;3.17;;
6017;SDS011;3037;51.068;13.780;2023-04-24T04:40:16;3.13;;;2.93;;
6017;SDS011;3037;51.068;13.780;2023-04-24T04:42:42;3.53;;;2.77;;
6017;SDS011;3037;51.068;13.780;2023-04-24T04:45:10;5.30;;;2.70;;
6017;SDS011;3037;51.068;13.780;2023-04-24T04:47:36;2.70;;;2.60;;
6017;SDS011;3037;51.068;13.780;2023-04-24T04:50:02;2.67;;;2.47;;
6017;SDS011;3037;51.068;13.780;2023-04-24T04:52:28;2.07;;;1.87;;
6017;SDS011;3037;51.068;13.780;2023-04-24T04:54:54;3.33;;;2.30;;
6017;SDS011;3037;51.068;13.780;2023-04-24T04:57:20;5.03;;;2.47;;
6017;SDS011;3037;51.068;13.780;2023-04-24T04:59:46;3.43;;;2.97;;
6017;SDS011;3037;51.068;13.780;2023-04-24T05:02:11;3.23;;;2.30;;
6017;SDS011;3037;51.068;13.780;2023-04-24T05:04:37;6.67;;;3.33;;
6017;SDS011;3037;51.068;13.780;2023-04-24T05:07:03;2.83;;;2.50;;
6017;SDS011;3037;51.068;13.780;2023-04-24T05:09:28;4.30;;;2.50;;
6017;SDS011;3037;51.068;13.780;2023-04-24T05:11:54;3.03;;;2.77;;
6017;SDS011;3037;51.068;13.780;2023-04-24T05:14:20;1.43;;;1.43;;
6017;SDS011;3037;51.068;13.780;2023-04-24T05:16:46;1.87;;;1.77;;
6017;SDS011;3037;51.068;13.780;2023-04-24T05:19:12;5.43;;;1.40;;
6017;SDS011;3037;51.068;13.780;2023-04-24T05:21:39;1.60;;;1.40;;
6017;SDS011;3037;51.068;13.780;2023-04-24T05:24:05;1.70;;;1.60;;
6017;SDS011;3037;51.068;13.780;2023-04-24T05:26:30;5.37;;;1.97;;
6017;SDS011;3037;51.068;13.780;2023-04-24T05:28:56;2.07;;;1.83;;
6017;SDS011;3037;51.068;13.780;2023-04-24T05:31:22;2.20;;;1.60;;
6017;SDS011;3037;51.068;13.780;2023-04-24T05:33:47;6.40;;;1.50;;
6017;SDS011;3037;51.068;13.780;2023-04-24T05:36:13;2.00;;;1.87;;
6017;SDS011;3037;51.068;13.780;2023-04-24T05:38:38;2.60;;;1.10;;
6017;SDS011;3037;51.068;13.780;2023-04-24T05:41:04;1.57;;;1.50;;
6017;SDS011;3037;51.068;13.780;2023-04-24T05:43:30;2.00;;;1.63;;
6017;SDS011;3037;51.068;13.780;2023-04-24T05:45:55;4.83;;;1.80;;
6017;SDS011;3037;51.068;13.780;2023-04-24T05:48:21;1.80;;;1.70;;
6017;SDS011;3037;51.068;13.780;2023-04-24T05:50:47;3.77;;;1.37;;
6017;SDS011;3037;51.068;13.780;2023-04-24T05:53:13;2.23;;;2.00;;
6017;SDS011;3037;51.068;13.780;2023-04-24T05:55:38;3.60;;;1.37;;
6017;SDS011;3037;51.068;13.780;2023-04-24T05:58:04;2.37;;;1.77;;
6017;SDS011;3037;51.068;13.780;2023-04-24T06:00:30;2.33;;;1.60;;
6017;SDS011;3037;51.068;13.780;2023-04-24T06:02:56;3.83;;;1.60;;
6017;SDS011;3037;51.068;13.780;2023-04-24T06:05:22;6.00;;;2.33;;
6017;SDS011;3037;51.068;13.780;2023-04-24T06:07:48;6.80;;;1.93;;
6017;SDS011;3037;51.068;13.780;2023-04-24T06:10:13;6.20;;;2.00;;
6017;SDS011;3037;51.068;13.780;2023-04-24T06:12:39;2.93;;;1.83;;
6017;SDS011;3037;51.068;13.780;2023-04-24T06:15:04;2.07;;;1.87;;
6017;SDS011;3037;51.068;13.780;2023-04-24T06:17:30;6.20;;;1.97;;
6017;SDS011;3037;51.068;13.780;2023-04-24T06:19:57;4.33;;;2.10;;
6017;SDS011;3037;51.068;13.780;2023-04-24T06:22:22;1.30;;;1.30;;
6017;SDS011;3037;51.068;13.780;2023-04-24T06:24:48;5.57;;;1.63;;
6017;SDS011;3037;51.068;13.780;2023-04-24T06:27:14;2.13;;;1.80;;
6017;SDS011;3037;51.068;13.780;2023-04-24T06:29:39;3.87;;;1.70;;
6017;SDS011;3037;51.068;13.780;2023-04-24T06:32:05;1.87;;;1.60;;
6017;SDS011;3037;51.068;13.780;2023-04-24T06:34:30;8.70;;;1.83;;
6017;SDS011;3037;51.068;13.780;2023-04-24T06:36:57;4.30;;;1.80;;
6017;SDS011;3037;51.068;13.780;2023-04-24T06:39:23;4.07;;;1.23;;
6017;SDS011;3037;51.068;13.780;2023-04-24T06:41:49;3.30;;;1.30;;
6017;SDS011;3037;51.068;13.780;2023-04-24T06:44:14;1.63;;;1.53;;
6017;SDS011;3037;51.068;13.780;2023-04-24T06:46:40;2.30;;;1.30;;
6017;SDS011;3037;51.068;13.780;2023-04-24T06:49:06;8.00;;;1.57;;
6017;SDS011;3037;51.068;13.780;2023-04-24T06:51:31;1.30;;;1.17;;
6017;SDS011;3037;51.068;13.780;2023-04-24T06:53:58;2.40;;;0.90;;
6017;SDS011;3037;51.068;13.780;2023-04-24T06:56:24;1.83;;;1.10;;
6017;SDS011;3037;51.068;13.780;2023-04-24T06:58:50;1.20;;;1.10;;
6017;SDS011;3037;51.068;13.780;2023-04-24T07:01:16;2.17;;;1.10;;
6017;SDS011;3037;51.068;13.780;2023-04-24T07:03:42;1.30;;;1.20;;
6017;SDS011;3037;51.068;13.780;2023-04-24T07:06:07;5.70;;;1.20;;
6017;SDS011;3037;51.068;13.780;2023-04-24T07:08:34;1.77;;;1.40;;
6017;SDS011;3037;51.068;13.780;2023-04-24T07:11:00;1.87;;;1.03;;
6017;SDS011;3037;51.068;13.780;2023-04-24T07:13:26;1.20;;;1.10;;
6017;SDS011;3037;51.068;13.780;2023-04-24T07:15:53;1.50;;;0.87;;
6017;SDS011;3037;51.068;13.780;2023-04-24T07:18:20;6.83;;;1.13;;
6017;SDS011;3037;51.068;13.780;2023-04-24T07:20:46;1.17;;;1.07;;
6017;SDS011;3037;51.068;13.780;2023-04-24T07:23:11;1.00;;;0.90;;
6017;SDS011;3037;51.068;13.780;2023-04-24T07:25:37;2.00;;;1.20;;
6017;SDS011;3037;51.068;13.780;2023-04-24T07:28:03;1.10;;;1.00;;
6017;SDS011;3037;51.068;13.780;2023-04-24T07:30:29;1.13;;;1.13;;
6017;SDS011;3037;51.068;13.780;2023-04-24T07:32:55;1.57;;;0.93;;
6017;SDS011;3037;51.068;13.780;2023-04-24T07:35:21;1.00;;;1.00;;
6017;SDS011;3037;51.068;13.780;2023-04-24T07:37:47;1.80;;;1.00;;
6017;SDS011;3037;51.068;13.780;2023-04-24T07:40:13;1.10;;;1.00;;
6017;SDS011;3037;51.068;13.780;2023-04-24T07:42:38;0.80;;;0.80;;
6017;SDS011;3037;51.068;13.780;2023-04-24T07:45:04;2.33;;;1.10;;
6017;SDS011;3037;51.068;13.780;2023-04-24T07:47:30;3.73;;;1.10;;
6017;SDS011;3037;51.068;13.780;2023-04-24T07:49:57;0.90;;;0.90;;
6017;SDS011;3037;51.068;13.780;2023-04-24T07:52:23;2.97;;;1.23;;
6017;SDS011;3037;51.068;13.780;2023-04-24T07:54:48;1.13;;;1.00;;
6017;SDS011;3037;51.068;13.780;2023-04-24T07:57:15;2.23;;;1.20;;
6017;SDS011;3037;51.068;13.780;2023-04-24T07:59:40;3.07;;;0.90;;
6017;SDS011;3037;51.068;13.780;2023-04-24T08:02:06;1.60;;;1.07;;
6017;SDS011;3037;51.068;13.780;2023-04-24T08:04:32;1.97;;;1.07;;
6017;SDS011;3037;51.068;13.780;2023-04-24T08:06:58;3.03;;;1.00;;
6017;SDS011;3037;51.068;13.780;2023-04-24T08:09:23;2.20;;;1.30;;
6017;SDS011;3037;51.068;13.780;2023-04-24T08:11:49;1.93;;;1.10;;
6017;SDS011;3037;51.068;13.780;2023-04-24T08:14:14;4.80;;;0.90;;
6017;SDS011;3037;51.068;13.780;2023-04-24T08:16:40;2.50;;;1.00;;
6017;SDS011;3037;51.068;13.780;2023-04-24T08:19:06;1.37;;;1.27;;
6017;SDS011;3037;51.068;13.780;2023-04-24T08:21:32;0.80;;;0.80;;
6017;SDS011;3037;51.068;13.780;2023-04-24T08:23:57;2.50;;;1.10;;
6017;SDS011;3037;51.068;13.780;2023-04-24T08:26:23;1.10;;;0.80;;
6017;SDS011;3037;51.068;13.780;2023-04-24T08:28:49;2.53;;;1.60;;
6017;SDS011;3037;51.068;13.780;2023-04-24T08:31:15;3.07;;;1.17;;
6017;SDS011;3037;51.068;13.780;2023-04-24T08:33:40;1.10;;;1.10;;
6017;SDS011;3037;51.068;13.780;2023-04-24T08:36:06;3.27;;;1.37;;
6017;SDS011;3037;51.068;13.780;2023-04-24T08:38:33;0.80;;;0.80;;
6017;SDS011;3037;51.068;13.780;2023-04-24T08:40:59;1.40;;;1.40;;
6017;SDS011;3037;51.068;13.780;2023-04-24T08:43:26;2.50;;;1.07;;
6017;SDS011;3037;51.068;13.780;2023-04-24T08:45:52;1.10;;;1.10;;
6017;SDS011;3037;51.068;13.780;2023-04-24T08:48:20;1.00;;;0.90;;
6017;SDS011;3037;51.068;13.780;2023-04-24T08:50:47;2.70;;;1.97;;
6017;SDS011;3037;51.068;13.780;2023-04-24T08:53:15;3.20;;;1.93;;
6017;SDS011;3037;51.068;13.780;2023-04-24T08:55:41;1.80;;;1.40;;
6017;SDS011;3037;51.068;13.780;2023-04-24T08:58:09;6.47;;;1.57;;
6017;SDS011;3037;51.068;13.780;2023-04-24T09:00:35;9.83;;;2.17;;
6017;SDS011;3037;51.068;13.780;2023-04-24T09:03:02;4.60;;;3.67;;
6017;SDS011;3037;51.068;13.780;2023-04-24T09:05:29;2.80;;;2.60;;
6017;SDS011;3037;51.068;13.780;2023-04-24T09:07:56;5.63;;;4.30;;
6017;SDS011;3037;51.068;13.780;2023-04-24T09:10:22;6.23;;;2.90;;
6017;SDS011;3037;51.068;13.780;2023-04-24T09:12:49;2.43;;;1.57;;
6017;SDS011;3037;51.068;13.780;2023-04-24T09:15:16;1.63;;;0.90;;
6017;SDS011;3037;51.068;13.780;2023-04-24T09:17:43;4.10;;;1.33;;
6017;SDS011;3037;51.068;13.780;2023-04-24T09:20:09;3.17;;;1.60;;
6017;SDS011;3037;51.068;13.780;2023-04-24T09:22:35;2.97;;;2.40;;
6017;SDS011;3037;51.068;13.780;2023-04-24T09:25:05;1.03;;;1.03;;
6017;SDS011;3037;51.068;13.780;2023-04-24T09:27:32;4.47;;;2.50;;
6017;SDS011;3037;51.068;13.780;2023-04-24T09:29:58;13.53;;;1.40;;
6017;SDS011;3037;51.068;13.780;2023-04-24T09:32:25;1.73;;;1.17;;
6017;SDS011;3037;51.068;13.780;2023-04-24T09:37:38;1.30;;;1.23;;
6017;SDS011;3037;51.068;13.780;2023-04-24T09:40:13;2.00;;;1.80;;
6017;SDS011;3037;51.068;13.780;2023-04-24T09:42:51;1.23;;;1.00;;
6017;SDS011;3037;51.068;13.780;2023-04-24T09:45:19;0.90;;;0.90;;
6017;SDS011;3037;51.068;13.780;2023-04-24T09:47:45;1.20;;;1.10;;
6017;SDS011;3037;51.068;13.780;2023-04-24T09:52:44;2.20;;;0.90;;
6017;SDS011;3037;51.068;13.780;2023-04-24T09:55:16;1.00;;;1.00;;
6017;SDS011;3037;51.068;13.780;2023-04-24T09:57:53;2.43;;;1.37;;
6017;SDS011;3037;51.068;13.780;2023-04-24T10:00:21;7.00;;;1.43;;
6017;SDS011;3037;51.068;13.780;2023-04-24T10:02:59;1.17;;;1.17;;
6017;SDS011;3037;51.068;13.780;2023-04-24T10:05:30;1.03;;;0.80;;
6017;SDS011;3037;51.068;13.780;2023-04-24T10:08:04;1.97;;;0.93;;
6017;SDS011;3037;51.068;13.780;2023-04-24T10:10:33;1.20;;;1.10;;
6017;SDS011;3037;51.068;13.780;2023-04-24T10:13:00;0.77;;;0.77;;
6017;SDS011;3037;51.068;13.780;2023-04-24T10:15:26;1.53;;;1.10;;
6017;SDS011;3037;51.068;13.780;2023-04-24T10:17:52;5.30;;;1.03;;
6017;SDS011;3037;51.068;13.780;2023-04-24T10:20:28;6.20;;;1.30;;
6017;SDS011;3037;51.068;13.780;2023-04-24T10:22:55;7.70;;;1.67;;
6017;SDS011;3037;51.068;13.780;2023-04-24T10:25:25;1.43;;;0.80;;
6017;SDS011;3037;51.068;13.780;2023-04-24T10:27:53;1.73;;;1.33;;
6017;SDS011;3037;51.068;13.780;2023-04-24T10:30:22;1.67;;;1.57;;
6017;SDS011;3037;51.068;13.780;2023-04-24T10:32:48;1.77;;;1.67;;
6017;SDS011;3037;51.068;13.780;2023-04-24T10:35:14;1.63;;;1.53;;
6017;SDS011;3037;51.068;13.780;2023-04-24T10:37:42;2.00;;;1.90;;
6017;SDS011;3037;51.068;13.780;2023-04-24T10:40:10;5.13;;;3.27;;
6017;SDS011;3037;51.068;13.780;2023-04-24T10:42:39;1.30;;;1.07;;
6017;SDS011;3037;51.068;13.780;2023-04-24T10:45:06;1.13;;;0.80;;
6017;SDS011;3037;51.068;13.780;2023-04-24T10:47:40;3.40;;;0.87;;
6017;SDS011;3037;51.068;13.780;2023-04-24T10:50:10;1.43;;;1.33;;
6017;SDS011;3037;51.068;13.780;2023-04-24T10:52:45;0.77;;;0.77;;
6017;SDS011;3037;51.068;13.780;2023-04-24T10:58:08;10.03;;;5.37;;
6017;SDS011;3037;51.068;13.780;2023-04-24T11:00:36;1.27;;;1.10;;
6017;SDS011;3037;51.068;13.780;2023-04-24T11:03:04;1.77;;;1.67;;
6017;SDS011;3037;51.068;13.780;2023-04-24T11:06:02;1.10;;;0.73;;
6017;SDS011;3037;51.068;13.780;2023-04-24T11:08:37;1.80;;;1.30;;
6017;SDS011;3037;51.068;13.780;2023-04-24T11:11:12;1.60;;;1.50;;
6017;SDS011;3037;51.068;13.780;2023-04-24T11:19:36;0.97;;;0.90;;
6017;SDS011;3037;51.068;13.780;2023-04-24T11:27:15;3.63;;;1.20;;
6017;SDS011;3037;51.068;13.780;2023-04-24T11:34:52;0.80;;;0.80;;
6017;SDS011;3037;51.068;13.780;2023-04-24T11:37:35;0.90;;;0.90;;
6017;SDS011;3037;51.068;13.780;2023-04-24T11:40:02;1.00;;;1.00;;
6017;SDS011;3037;51.068;13.780;2023-04-24T11:42:33;3.20;;;0.90;;
6017;SDS011;3037;51.068;13.780;2023-04-24T11:45:07;1.20;;;1.03;;
6017;SDS011;3037;51.068;13.780;2023-04-24T11:47:34;0.90;;;0.90;;
6017;SDS011;3037;51.068;13.780;2023-04-24T11:50:00;1.00;;;0.90;;
6017;SDS011;3037;51.068;13.780;2023-04-24T11:52:26;1.90;;;0.80;;
6017;SDS011;3037;51.068;13.780;2023-04-24T11:54:52;0.70;;;0.70;;
6017;SDS011;3037;51.068;13.780;2023-04-24T11:57:22;2.10;;;0.83;;
6017;SDS011;3037;51.068;13.780;2023-04-24T11:59:51;2.77;;;0.70;;
6017;SDS011;3037;51.068;13.780;2023-04-24T12:02:20;0.90;;;0.90;;
6017;SDS011;3037;51.068;13.780;2023-04-24T12:04:46;1.33;;;0.77;;
6017;SDS011;3037;51.068;13.780;2023-04-24T12:07:12;1.83;;;0.83;;
6017;SDS011;3037;51.068;13.780;2023-04-24T12:09:41;1.17;;;0.87;;
6017;SDS011;3037;51.068;13.780;2023-04-24T12:12:08;0.80;;;0.80;;
6017;SDS011;3037;51.068;13.780;2023-04-24T12:14:41;0.93;;;0.93;;
6017;SDS011;3037;51.068;13.780;2023-04-24T12:17:14;1.37;;;1.10;;
6017;SDS011;3037;51.068;13.780;2023-04-24T12:19:47;1.20;;;1.00;;
6017;SDS011;3037;51.068;13.780;2023-04-24T12:22:13;2.20;;;1.13;;
6017;SDS011;3037;51.068;13.780;2023-04-24T12:24:58;1.17;;;1.07;;
6017;SDS011;3037;51.068;13.780;2023-04-24T12:27:29;2.37;;;0.83;;
6017;SDS011;3037;51.068;13.780;2023-04-24T12:29:57;1.03;;;1.00;;
6017;SDS011;3037;51.068;13.780;2023-04-24T12:32:24;1.63;;;0.90;;
6017;SDS011;3037;51.068;13.780;2023-04-24T12:34:52;1.43;;;1.10;;
6017;SDS011;3037;51.068;13.780;2023-04-24T12:37:19;3.20;;;1.10;;
6017;SDS011;3037;51.068;13.780;2023-04-24T12:40:01;1.30;;;1.30;;
6017;SDS011;3037;51.068;13.780;2023-04-24T12:42:30;2.40;;;1.10;;
6017;SDS011;3037;51.068;13.780;2023-04-24T12:44:57;1.00;;;1.00;;
6017;SDS011;3037;51.068;13.780;2023-04-24T12:47:30;1.27;;;1.17;;
6017;SDS011;3037;51.068;13.780;2023-04-24T12:49:57;7.40;;;1.93;;
6017;SDS011;3037;51.068;13.780;2023-04-24T12:52:22;2.80;;;1.40;;
6017;SDS011;3037;51.068;13.780;2023-04-24T12:54:49;1.00;;;1.00;;
6017;SDS011;3037;51.068;13.780;2023-04-24T12:57:16;1.73;;;1.27;;
6017;SDS011;3037;51.068;13.780;2023-04-24T12:59:42;1.73;;;0.90;;
6017;SDS011;3037;51.068;13.780;2023-04-24T13:02:08;3.23;;;1.10;;
6017;SDS011;3037;51.068;13.780;2023-04-24T13:04:35;1.53;;;1.43;;
6017;SDS011;3037;51.068;13.780;2023-04-24T13:07:00;1.53;;;1.03;;
6017;SDS011;3037;51.068;13.780;2023-04-24T13:09:26;1.33;;;1.20;;
6017;SDS011;3037;51.068;13.780;2023-04-24T13:11:51;1.53;;;1.20;;
6017;SDS011;3037;51.068;13.780;2023-04-24T13:14:17;3.87;;;1.13;;
6017;SDS011;3037;51.068;13.780;2023-04-24T13:16:42;2.80;;;1.00;;
6017;SDS011;3037;51.068;13.780;2023-04-24T13:19:08;1.00;;;1.00;;
6017;SDS011;3037;51.068;13.780;2023-04-24T13:21:33;1.50;;;1.40;;
6017;SDS011;3037;51.068;13.780;2023-04-24T13:23:59;1.97;;;1.00;;
6017;SDS011;3037;51.068;13.780;2023-04-24T13:26:24;2.03;;;1.10;;
6017;SDS011;3037;51.068;13.780;2023-04-24T13:28:50;2.63;;;0.93;;
6017;SDS011;3037;51.068;13.780;2023-04-24T13:31:15;6.67;;;1.27;;
6017;SDS011;3037;51.068;13.780;2023-04-24T13:33:41;6.00;;;1.67;;
6017;SDS011;3037;51.068;13.780;2023-04-24T13:36:07;2.80;;;1.20;;
6017;SDS011;3037;51.068;13.780;2023-04-24T13:38:33;0.80;;;0.80;;
6017;SDS011;3037;51.068;13.780;2023-04-24T13:40:58;1.40;;;1.30;;
6017;SDS011;3037;51.068;13.780;2023-04-24T13:43:24;3.37;;;1.50;;
6017;SDS011;3037;51.068;13.780;2023-04-24T13:45:49;1.43;;;1.20;;
6017;SDS011;3037;51.068;13.780;2023-04-24T13:48:15;0.90;;;0.90;;
6017;SDS011;3037;51.068;13.780;2023-04-24T13:50:41;2.97;;;1.57;;
6017;SDS011;3037;51.068;13.780;2023-04-24T13:53:07;2.50;;;1.33;;
6017;SDS011;3037;51.068;13.780;2023-04-24T13:55:33;2.90;;;0.90;;
6017;SDS011;3037;51.068;13.780;2023-04-24T13:57:59;2.00;;;1.90;;
6017;SDS011;3037;51.068;13.780;2023-04-24T14:00:24;3.20;;;1.03;;
6017;SDS011;3037;51.068;13.780;2023-04-24T14:02:50;2.13;;;2.03;;
6017;SDS011;3037;51.068;13.780;2023-04-24T14:05:16;0.90;;;0.90;;
6017;SDS011;3037;51.068;13.780;2023-04-24T14:07:41;3.13;;;1.00;;
6017;SDS011;3037;51.068;13.780;2023-04-24T14:10:07;1.17;;;1.17;;
6017;SDS011;3037;51.068;13.780;2023-04-24T14:12:33;2.10;;;1.67;;
6017;SDS011;3037;51.068;13.780;2023-04-24T14:14:59;4.30;;;0.90;;
6017;SDS011;3037;51.068;13.780;2023-04-24T14:17:24;1.10;;;1.10;;
6017;SDS011;3037;51.068;13.780;2023-04-24T14:19:50;6.83;;;4.33;;
6017;SDS011;3037;51.068;13.780;2023-04-24T14:22:17;1.30;;;1.30;;
6017;SDS011;3037;51.068;13.780;2023-04-24T14:24:42;1.90;;;1.73;;
6017;SDS011;3037;51.068;13.780;2023-04-24T14:27:08;1.47;;;1.33;;
6017;SDS011;3037;51.068;13.780;2023-04-24T14:29:33;4.10;;;1.83;;
6017;SDS011;3037;51.068;13.780;2023-04-24T14:31:59;2.13;;;1.90;;
6017;SDS011;3037;51.068;13.780;2023-04-24T14:34:24;4.63;;;1.13;;
6017;SDS011;3037;51.068;13.780;2023-04-24T14:36:52;2.90;;;1.80;;
6017;SDS011;3037;51.068;13.780;2023-04-24T14:39:17;0.90;;;0.90;;
6017;SDS011;3037;51.068;13.780;2023-04-24T14:41:43;1.47;;;1.37;;
6017;SDS011;3037;51.068;13.780;2023-04-24T14:44:08;2.77;;;1.63;;
6017;SDS011;3037;51.068;13.780;2023-04-24T14:46:34;2.60;;;2.03;;
6017;SDS011;3037;51.068;13.780;2023-04-24T14:48:59;2.97;;;2.60;;
6017;SDS011;3037;51.068;13.780;2023-04-24T14:51:25;6.00;;;4.30;;
6017;SDS011;3037;51.068;13.780;2023-04-24T14:53:51;1.17;;;1.00;;
6017;SDS011;3037;51.068;13.780;2023-04-24T14:56:17;2.03;;;1.37;;
6017;SDS011;3037;51.068;13.780;2023-04-24T14:58:42;1.33;;;1.33;;
6017;SDS011;3037;51.068;13.780;2023-04-24T15:01:08;2.97;;;1.13;;
6017;SDS011;3037;51.068;13.780;2023-04-24T15:03:33;2.57;;;1.30;;
6017;SDS011;3037;51.068;13.780;2023-04-24T15:05:59;1.50;;;1.30;;
6017;SDS011;3037;51.068;13.780;2023-04-24T15:08:25;7.63;;;2.53;;
6017;SDS011;3037;51.068;13.780;2023-04-24T15:10:51;4.70;;;1.60;;
6017;SDS011;3037;51.068;13.780;2023-04-24T15:13:17;1.30;;;1.20;;
6017;SDS011;3037;51.068;13.780;2023-04-24T15:15:42;1.43;;;1.33;;
6017;SDS011;3037;51.068;13.780;2023-04-24T15:18:08;2.27;;;1.30;;
6017;SDS011;3037;51.068;13.780;2023-04-24T15:20:36;1.30;;;0.93;;